createdAt,value
2023-05-09T00:03:08.997Z,14.71
2023-05-09T00:08:30.795Z,14.66
2023-05-09T00:13:53.227Z,14.77
2023-05-09T00:19:14.899Z,14.77
2023-05-09T00:24:36.612Z,14.66
2023-05-09T00:29:58.621Z,14.72
2023-05-09T00:35:20.441Z,14.76
2023-05-09T00:40:42.167Z,14.75
2023-05-09T00:46:04.440Z,14.74
2023-05-09T00:51:28.442Z,14.70
2023-05-09T00:56:51.271Z,14.67
2023-05-09T01:02:13.224Z,14.64
2023-05-09T01:07:57.037Z,14.57
2023-05-09T01:13:35.182Z,14.52
2023-05-09T01:19:25.854Z,14.44
2023-05-09T01:25:24.851Z,14.41
2023-05-09T01:30:47.476Z,14.37
2023-05-09T01:36:13.304Z,14.27
2023-05-09T01:41:37.461Z,14.33
2023-05-09T01:47:01.220Z,14.34
2023-05-09T01:52:25.561Z,14.29
2023-05-09T01:57:48.880Z,14.23
2023-05-09T02:03:11.623Z,14.21
2023-05-09T02:08:33.522Z,14.20
2023-05-09T02:13:55.334Z,14.12
2023-05-09T02:19:17.486Z,14.19
2023-05-09T02:24:40.484Z,14.10
2023-05-09T02:30:07.386Z,14.09
2023-05-09T02:35:29.659Z,14.16
2023-05-09T02:40:52.610Z,14.27
2023-05-09T02:46:14.533Z,14.32
2023-05-09T02:51:36.342Z,14.32
2023-05-09T02:56:59.225Z,14.26
2023-05-09T03:02:21.078Z,14.26
2023-05-09T03:07:42.933Z,14.20
2023-05-09T03:13:05.004Z,14.16
2023-05-09T03:18:26.798Z,14.18
2023-05-09T03:23:48.549Z,14.17
2023-05-09T03:29:10.302Z,14.12
2023-05-09T03:34:32.038Z,14.07
2023-05-09T03:39:53.855Z,14.11
2023-05-09T03:45:15.674Z,14.02
2023-05-09T03:50:37.647Z,14.01
2023-05-09T03:55:59.354Z,13.96
2023-05-09T04:01:21.111Z,13.81
2023-05-09T04:06:42.885Z,13.77
2023-05-09T04:12:04.812Z,13.88
2023-05-09T04:17:26.758Z,14.02
2023-05-09T04:22:48.569Z,14.09
2023-05-09T04:28:10.407Z,14.16
2023-05-09T04:33:32.240Z,14.10
2023-05-09T04:38:53.973Z,14.13
2023-05-09T04:44:17.065Z,14.16
2023-05-09T04:49:38.908Z,14.19
2023-05-09T04:55:01.029Z,14.16
2023-05-09T05:00:22.861Z,14.15
2023-05-09T05:05:45.004Z,14.26
2023-05-09T05:11:06.966Z,14.35
2023-05-09T05:16:28.797Z,14.41
2023-05-09T05:21:50.586Z,14.36
2023-05-09T05:27:12.463Z,14.40
2023-05-09T05:32:34.303Z,14.37
2023-05-09T05:37:56.138Z,14.43
2023-05-09T05:43:17.932Z,14.36
2023-05-09T05:48:39.646Z,14.36
2023-05-09T05:54:01.346Z,14.36
2023-05-09T05:59:23.059Z,14.34
2023-05-09T06:04:45.071Z,14.40
2023-05-09T06:10:08.087Z,14.45
2023-05-09T06:15:29.830Z,14.55
2023-05-09T06:20:51.594Z,14.62
2023-05-09T06:26:14.509Z,14.68
2023-05-09T06:31:38.834Z,14.79
2023-05-09T06:37:00.954Z,14.75
2023-05-09T06:42:22.706Z,14.75
2023-05-09T06:47:44.498Z,14.74
2023-05-09T06:53:06.238Z,14.76
2023-05-09T06:58:28.516Z,14.84
2023-05-09T07:03:50.307Z,14.86
2023-05-09T07:09:14.890Z,14.95
2023-05-09T07:14:36.674Z,15.12
2023-05-09T07:19:58.399Z,15.20
2023-05-09T07:25:20.447Z,15.38
2023-05-09T07:30:43.687Z,15.43
2023-05-09T07:36:05.652Z,15.59
2023-05-09T07:41:27.363Z,15.82
2023-05-09T07:46:49.107Z,16.04
2023-05-09T07:52:10.973Z,16.11
2023-05-09T07:57:32.912Z,16.15
2023-05-09T08:02:54.964Z,16.16
2023-05-09T08:08:16.828Z,16.16
2023-05-09T08:13:38.581Z,16.18
2023-05-09T08:19:00.296Z,16.12
2023-05-09T08:24:22.075Z,16.15
2023-05-09T08:29:43.883Z,16.21
2023-05-09T08:35:06.672Z,16.34
2023-05-09T08:40:28.399Z,16.44
2023-05-09T08:45:58.020Z,16.52
2023-05-09T08:51:21.357Z,16.49
2023-05-09T08:56:43.185Z,16.44
2023-05-09T09:02:09.722Z,16.59
2023-05-09T09:07:34.560Z,16.67
2023-05-09T09:12:58.976Z,16.80
2023-05-09T09:18:23.828Z,16.79
2023-05-09T09:23:47.576Z,16.84
2023-05-09T09:29:09.677Z,16.91
2023-05-09T09:34:31.414Z,16.99
2023-05-09T09:39:57.241Z,17.01
2023-05-09T09:45:20.414Z,17.05
2023-05-09T09:50:42.441Z,17.15
2023-05-09T09:56:04.458Z,17.24
2023-05-09T10:01:26.231Z,17.30
2023-05-09T10:07:03.657Z,17.39
2023-05-09T10:12:25.660Z,17.41
2023-05-09T10:17:50.496Z,17.50
2023-05-09T10:23:15.131Z,17.66
2023-05-09T10:28:40.303Z,17.74
2023-05-09T10:34:09.835Z,17.78
2023-05-09T10:39:32.231Z,17.92
2023-05-09T10:44:54.082Z,17.94
2023-05-09T10:50:17.139Z,17.97
2023-05-09T10:55:49.631Z,18.08
2023-05-09T11:01:11.384Z,18.27
2023-05-09T11:06:46.353Z,18.40
2023-05-09T11:12:13.559Z,18.30
2023-05-09T11:17:38.654Z,18.32
2023-05-09T11:23:03.680Z,18.36
2023-05-09T11:28:30.428Z,18.50
2023-05-09T11:33:58.134Z,18.67
2023-05-09T11:39:25.034Z,18.78
2023-05-09T11:44:48.636Z,18.75
2023-05-09T11:50:13.243Z,18.65
2023-05-09T11:55:37.998Z,18.76
2023-05-09T12:01:00.474Z,18.69
2023-05-09T12:06:22.767Z,18.75
2023-05-09T12:11:49.963Z,18.81
2023-05-09T12:17:12.338Z,19.00
2023-05-09T12:22:34.982Z,19.02
2023-05-09T12:27:57.254Z,19.02
2023-05-09T12:33:20.012Z,19.00
2023-05-09T12:38:52.769Z,19.02
2023-05-09T12:44:24.809Z,19.01
2023-05-09T12:49:50.686Z,19.05
2023-05-09T12:55:14.100Z,19.02
2023-05-09T13:00:46.282Z,18.99
2023-05-09T13:06:14.764Z,19.02
2023-05-09T13:11:37.837Z,19.01
2023-05-09T13:16:59.597Z,18.97
2023-05-09T13:22:21.407Z,18.92
2023-05-09T13:27:43.157Z,18.98
2023-05-09T13:33:16.735Z,18.93
2023-05-09T13:38:46.784Z,18.91
2023-05-09T13:44:08.555Z,18.95
2023-05-09T13:49:30.287Z,18.89
2023-05-09T13:54:52.192Z,18.94
2023-05-09T14:00:15.838Z,18.92
2023-05-09T14:05:37.790Z,18.91
2023-05-09T14:10:59.534Z,19.03
2023-05-09T14:16:21.917Z,18.92
2023-05-09T14:21:44.767Z,18.85
2023-05-09T14:27:06.485Z,18.92
2023-05-09T14:32:28.209Z,18.89
2023-05-09T14:37:49.917Z,18.90
2023-05-09T14:43:12.629Z,19.13
2023-05-09T14:48:34.370Z,18.87
2023-05-09T14:53:56.104Z,18.75
2023-05-09T14:59:18.034Z,18.68
2023-05-09T15:04:41.286Z,18.64
2023-05-09T15:10:03.429Z,18.63
2023-05-09T15:15:25.757Z,18.67
2023-05-09T15:20:47.536Z,18.68
2023-05-09T15:26:12.134Z,18.65
2023-05-09T15:31:36.266Z,18.66
2023-05-09T15:36:58.885Z,18.68
2023-05-09T15:42:20.737Z,18.67
2023-05-09T15:47:42.670Z,18.66
2023-05-09T15:53:05.357Z,18.65
2023-05-09T15:58:27.262Z,18.63
2023-05-09T16:03:49.262Z,18.64
2023-05-09T16:09:11.573Z,18.67
2023-05-09T16:14:33.477Z,18.69
2023-05-09T16:19:55.626Z,18.69
2023-05-09T16:25:17.507Z,18.67
2023-05-09T16:30:39.252Z,18.64
2023-05-09T16:36:02.060Z,18.61
2023-05-09T16:41:23.832Z,18.58
2023-05-09T16:46:47.115Z,18.55
2023-05-09T16:52:08.971Z,18.52
2023-05-09T16:57:30.776Z,18.49
2023-05-09T17:02:52.649Z,18.46
2023-05-09T17:08:14.677Z,18.43
2023-05-09T17:13:36.477Z,18.36
2023-05-09T17:18:58.271Z,18.34
2023-05-09T17:24:21.429Z,18.32
2023-05-09T17:29:43.237Z,18.30
2023-05-09T17:35:05.969Z,18.04
2023-05-09T17:40:27.787Z,17.90
2023-05-09T17:45:51.744Z,17.68
2023-05-09T17:51:13.584Z,17.58
2023-05-09T17:56:35.548Z,17.32
2023-05-09T18:01:57.385Z,17.17
2023-05-09T18:07:19.663Z,17.06
2023-05-09T18:12:41.712Z,16.97
2023-05-09T18:18:05.948Z,16.93
2023-05-09T18:23:27.946Z,16.84
2023-05-09T18:28:49.897Z,16.78
2023-05-09T18:34:11.653Z,16.79
2023-05-09T18:39:33.490Z,16.60
2023-05-09T18:44:55.897Z,16.56
2023-05-09T18:50:18.815Z,16.49
2023-05-09T18:55:40.853Z,16.48
2023-05-09T19:01:02.822Z,16.49
2023-05-09T19:06:26.145Z,16.43
2023-05-09T19:11:47.854Z,16.46
2023-05-09T19:17:10.835Z,16.39
2023-05-09T19:22:32.904Z,16.28
2023-05-09T19:27:54.734Z,16.09
2023-05-09T19:33:16.642Z,16.10
2023-05-09T19:38:38.471Z,15.87
2023-05-09T19:44:00.254Z,15.83
2023-05-09T19:49:21.975Z,15.76
2023-05-09T19:54:43.935Z,15.80
2023-05-09T20:00:07.302Z,15.65
2023-05-09T20:05:29.158Z,15.51
2023-05-09T20:10:51.324Z,15.51
2023-05-09T20:16:13.435Z,15.46
2023-05-09T20:21:35.390Z,15.44
2023-05-09T20:26:57.297Z,15.49
2023-05-09T20:32:19.103Z,15.47
2023-05-09T20:37:40.932Z,15.44
2023-05-09T20:43:02.838Z,15.32
2023-05-09T20:48:24.656Z,15.27
2023-05-09T20:53:46.384Z,15.35
2023-05-09T20:59:08.694Z,15.26
2023-05-09T21:04:30.536Z,15.12
2023-05-09T21:09:54.033Z,15.22
2023-05-09T21:15:15.815Z,15.13
2023-05-09T21:20:38.366Z,15.14
2023-05-09T21:26:00.430Z,15.04
2023-05-09T21:31:22.164Z,14.88
2023-05-09T21:36:43.919Z,15.06
2023-05-09T21:42:05.791Z,15.03
2023-05-09T21:47:28.563Z,15.00
2023-05-09T21:52:50.456Z,14.95
2023-05-09T21:58:12.193Z,14.93
2023-05-09T22:03:34.159Z,15.03
2023-05-09T22:08:56.015Z,15.03
2023-05-09T22:14:18.110Z,15.04
2023-05-09T22:19:40.549Z,15.01
2023-05-09T22:25:04.535Z,15.01
2023-05-09T22:30:26.419Z,14.95
2023-05-09T22:35:48.138Z,14.91
2023-05-09T22:41:09.980Z,14.87
2023-05-09T22:46:31.771Z,14.96
2023-05-09T22:51:53.569Z,14.95
2023-05-09T22:57:17.797Z,14.92
2023-05-09T23:02:39.681Z,14.88
2023-05-09T23:08:01.593Z,14.72
2023-05-09T23:13:23.554Z,14.74
2023-05-09T23:18:45.396Z,14.82
2023-05-09T23:24:07.336Z,14.75
2023-05-09T23:29:29.065Z,14.70
2023-05-09T23:34:50.799Z,14.63
2023-05-09T23:40:13.106Z,14.57
2023-05-09T23:45:34.863Z,14.58
2023-05-09T23:50:56.590Z,14.65
2023-05-09T23:56:18.385Z,14.61
